sensor_id;sensor_type;location;lat;lon;timestamp;P1;durP1;ratioP1;P2;durP2;ratioP2
45033;SDS011;30771;47.988;-4.186;2023-05-08T06:01:53;22.60;;;7.97;;
45033;SDS011;30771;47.988;-4.186;2023-05-08T06:04:18;21.23;;;8.15;;
45033;SDS011;30771;47.988;-4.186;2023-05-08T06:06:43;24.30;;;7.88;;
45033;SDS011;30771;47.988;-4.186;2023-05-08T06:09:08;19.02;;;7.13;;
45033;SDS011;30771;47.988;-4.186;2023-05-08T06:11:34;22.33;;;7.25;;
45033;SDS011;30771;47.988;-4.186;2023-05-08T06:13:59;22.50;;;7.65;;
45033;SDS011;30771;47.988;-4.186;2023-05-08T06:16:24;22.45;;;7.32;;
45033;SDS011;30771;47.988;-4.186;2023-05-08T06:18:49;16.35;;;6.97;;
45033;SDS011;30771;47.988;-4.186;2023-05-08T06:21:15;20.92;;;7.47;;
45033;SDS011;30771;47.988;-4.186;2023-05-08T06:23:40;14.02;;;6.97;;
45033;SDS011;30771;47.988;-4.186;2023-05-08T06:26:05;20.42;;;7.65;;
45033;SDS011;30771;47.988;-4.186;2023-05-08T06:28:32;19.70;;;6.47;;
45033;SDS011;30771;47.988;-4.186;2023-05-08T06:30:57;11.60;;;4.13;;
45033;SDS011;30771;47.988;-4.186;2023-05-08T06:33:22;11.40;;;2.88;;
45033;SDS011;30771;47.988;-4.186;2023-05-08T06:35:47;16.42;;;4.30;;
45033;SDS011;30771;47.988;-4.186;2023-05-08T06:38:13;14.90;;;4.97;;
45033;SDS011;30771;47.988;-4.186;2023-05-08T06:40:42;12.35;;;4.40;;
45033;SDS011;30771;47.988;-4.186;2023-05-08T06:43:08;12.05;;;3.30;;
45033;SDS011;30771;47.988;-4.186;2023-05-08T06:45:34;10.40;;;3.25;;
45033;SDS011;30771;47.988;-4.186;2023-05-08T06:47:59;13.65;;;2.90;;
45033;SDS011;30771;47.988;-4.186;2023-05-08T06:50:24;10.57;;;3.00;;
45033;SDS011;30771;47.988;-4.186;2023-05-08T06:52:49;6.97;;;2.97;;
45033;SDS011;30771;47.988;-4.186;2023-05-08T06:55:15;10.55;;;3.42;;
45033;SDS011;30771;47.988;-4.186;2023-05-08T06:57:40;8.00;;;3.33;;
45033;SDS011;30771;47.988;-4.186;2023-05-08T07:00:06;9.63;;;3.33;;
45033;SDS011;30771;47.988;-4.186;2023-05-08T07:02:31;9.77;;;3.22;;
45033;SDS011;30771;47.988;-4.186;2023-05-08T07:04:57;8.93;;;2.90;;
45033;SDS011;30771;47.988;-4.186;2023-05-08T07:07:22;7.22;;;2.67;;
45033;SDS011;30771;47.988;-4.186;2023-05-08T07:09:47;8.10;;;2.80;;
45033;SDS011;30771;47.988;-4.186;2023-05-08T07:12:12;11.15;;;3.15;;
45033;SDS011;30771;47.988;-4.186;2023-05-08T07:14:38;17.67;;;11.35;;
45033;SDS011;30771;47.988;-4.186;2023-05-08T07:17:03;23.67;;;14.30;;
45033;SDS011;30771;47.988;-4.186;2023-05-08T07:19:29;9.25;;;3.63;;
45033;SDS011;30771;47.988;-4.186;2023-05-08T07:21:54;10.65;;;8.13;;
45033;SDS011;30771;47.988;-4.186;2023-05-08T07:24:19;7.13;;;3.13;;
45033;SDS011;30771;47.988;-4.186;2023-05-08T07:26:45;7.25;;;3.90;;
45033;SDS011;30771;47.988;-4.186;2023-05-08T07:29:10;8.20;;;4.60;;
45033;SDS011;30771;47.988;-4.186;2023-05-08T07:31:37;10.35;;;4.60;;
45033;SDS011;30771;47.988;-4.186;2023-05-08T07:34:03;7.60;;;3.28;;
45033;SDS011;30771;47.988;-4.186;2023-05-08T07:36:28;7.00;;;2.90;;
45033;SDS011;30771;47.988;-4.186;2023-05-08T07:38:53;6.32;;;3.10;;
45033;SDS011;30771;47.988;-4.186;2023-05-08T07:41:19;8.98;;;3.30;;
45033;SDS011;30771;47.988;-4.186;2023-05-08T07:43:44;5.15;;;2.83;;
45033;SDS011;30771;47.988;-4.186;2023-05-08T07:46:14;8.60;;;4.20;;
45033;SDS011;30771;47.988;-4.186;2023-05-08T07:48:40;5.07;;;2.88;;
45033;SDS011;30771;47.988;-4.186;2023-05-08T07:51:06;7.38;;;3.38;;
45033;SDS011;30771;47.988;-4.186;2023-05-08T07:53:31;6.68;;;2.55;;
45033;SDS011;30771;47.988;-4.186;2023-05-08T07:55:56;3.88;;;2.60;;
45033;SDS011;30771;47.988;-4.186;2023-05-08T07:58:22;11.55;;;3.47;;
45033;SDS011;30771;47.988;-4.186;2023-05-08T08:00:47;7.25;;;3.15;;
45033;SDS011;30771;47.988;-4.186;2023-05-08T08:03:12;6.10;;;4.20;;
45033;SDS011;30771;47.988;-4.186;2023-05-08T08:05:37;9.43;;;3.60;;
45033;SDS011;30771;47.988;-4.186;2023-05-08T08:08:03;7.68;;;5.05;;
45033;SDS011;30771;47.988;-4.186;2023-05-08T08:10:28;5.93;;;3.40;;
45033;SDS011;30771;47.988;-4.186;2023-05-08T08:12:53;6.38;;;3.15;;
45033;SDS011;30771;47.988;-4.186;2023-05-08T08:15:19;7.57;;;2.70;;
45033;SDS011;30771;47.988;-4.186;2023-05-08T08:17:44;5.60;;;2.50;;
45033;SDS011;30771;47.988;-4.186;2023-05-08T08:20:09;5.03;;;2.85;;
45033;SDS011;30771;47.988;-4.186;2023-05-08T08:22:36;5.85;;;2.25;;
45033;SDS011;30771;47.988;-4.186;2023-05-08T08:25:01;5.90;;;2.25;;
45033;SDS011;30771;47.988;-4.186;2023-05-08T08:27:27;5.07;;;2.63;;
45033;SDS011;30771;47.988;-4.186;2023-05-08T08:29:52;7.10;;;2.85;;
45033;SDS011;30771;47.988;-4.186;2023-05-08T08:32:17;6.63;;;2.60;;
45033;SDS011;30771;47.988;-4.186;2023-05-08T08:34:43;4.30;;;2.70;;
45033;SDS011;30771;47.988;-4.186;2023-05-08T08:37:09;5.70;;;2.90;;
45033;SDS011;30771;47.988;-4.186;2023-05-08T08:39:34;5.95;;;3.20;;
45033;SDS011;30771;47.988;-4.186;2023-05-08T08:41:59;7.13;;;3.20;;
45033;SDS011;30771;47.988;-4.186;2023-05-08T08:44:25;10.65;;;3.08;;
45033;SDS011;30771;47.988;-4.186;2023-05-08T08:46:50;7.95;;;2.95;;
45033;SDS011;30771;47.988;-4.186;2023-05-08T08:49:17;8.48;;;3.05;;
45033;SDS011;30771;47.988;-4.186;2023-05-08T08:51:50;6.72;;;2.90;;
45033;SDS011;30771;47.988;-4.186;2023-05-08T08:54:22;12.00;;;3.92;;
45033;SDS011;30771;47.988;-4.186;2023-05-08T08:56:49;16.73;;;3.47;;
45033;SDS011;30771;47.988;-4.186;2023-05-08T08:59:15;14.77;;;3.60;;
45033;SDS011;30771;47.988;-4.186;2023-05-08T09:01:43;14.52;;;3.80;;
45033;SDS011;30771;47.988;-4.186;2023-05-08T09:04:10;16.08;;;3.28;;
45033;SDS011;30771;47.988;-4.186;2023-05-08T09:06:36;21.75;;;3.85;;
45033;SDS011;30771;47.988;-4.186;2023-05-08T09:09:02;27.77;;;3.97;;
45033;SDS011;30771;47.988;-4.186;2023-05-08T09:11:28;16.15;;;3.85;;
45033;SDS011;30771;47.988;-4.186;2023-05-08T09:13:54;37.63;;;4.18;;
45033;SDS011;30771;47.988;-4.186;2023-05-08T09:16:19;47.63;;;4.15;;
45033;SDS011;30771;47.988;-4.186;2023-05-08T09:18:45;70.57;;;4.30;;
45033;SDS011;30771;47.988;-4.186;2023-05-08T09:21:11;23.95;;;3.42;;
45033;SDS011;30771;47.988;-4.186;2023-05-08T09:23:36;43.00;;;4.30;;
45033;SDS011;30771;47.988;-4.186;2023-05-08T09:26:31;51.35;;;3.88;;
45033;SDS011;30771;47.988;-4.186;2023-05-08T09:29:11;37.70;;;3.92;;
45033;SDS011;30771;47.988;-4.186;2023-05-08T09:31:50;28.85;;;3.42;;
45033;SDS011;30771;47.988;-4.186;2023-05-08T09:36:53;10.27;;;3.20;;
45033;SDS011;30771;47.988;-4.186;2023-05-08T09:39:22;12.63;;;4.28;;
45033;SDS011;30771;47.988;-4.186;2023-05-08T09:41:58;10.88;;;3.75;;
45033;SDS011;30771;47.988;-4.186;2023-05-08T09:44:27;7.32;;;3.92;;
45033;SDS011;30771;47.988;-4.186;2023-05-08T09:47:26;12.15;;;2.38;;
45033;SDS011;30771;47.988;-4.186;2023-05-08T09:49:55;8.75;;;2.30;;
45033;SDS011;30771;47.988;-4.186;2023-05-08T09:52:27;10.73;;;3.20;;
45033;SDS011;30771;47.988;-4.186;2023-05-08T09:55:00;6.38;;;2.80;;
45033;SDS011;30771;47.988;-4.186;2023-05-08T09:57:27;6.20;;;2.25;;
45033;SDS011;30771;47.988;-4.186;2023-05-08T10:00:01;5.30;;;2.20;;
45033;SDS011;30771;47.988;-4.186;2023-05-08T10:02:37;4.88;;;2.92;;
45033;SDS011;30771;47.988;-4.186;2023-05-08T10:05:22;3.33;;;2.10;;
45033;SDS011;30771;47.988;-4.186;2023-05-08T10:07:49;1.90;;;1.40;;
45033;SDS011;30771;47.988;-4.186;2023-05-08T10:10:14;4.90;;;1.73;;
45033;SDS011;30771;47.988;-4.186;2023-05-08T10:12:47;2.45;;;1.23;;
45033;SDS011;30771;47.988;-4.186;2023-05-08T10:15:12;3.00;;;1.50;;
45033;SDS011;30771;47.988;-4.186;2023-05-08T10:17:41;2.63;;;1.27;;
45033;SDS011;30771;47.988;-4.186;2023-05-08T10:20:11;3.50;;;2.00;;
45033;SDS011;30771;47.988;-4.186;2023-05-08T10:22:38;2.05;;;1.40;;
45033;SDS011;30771;47.988;-4.186;2023-05-08T10:25:09;2.60;;;1.10;;
45033;SDS011;30771;47.988;-4.186;2023-05-08T10:27:40;2.33;;;1.90;;
45033;SDS011;30771;47.988;-4.186;2023-05-08T10:30:11;2.47;;;1.80;;
45033;SDS011;30771;47.988;-4.186;2023-05-08T10:32:38;1.75;;;1.50;;
45033;SDS011;30771;47.988;-4.186;2023-05-08T10:35:08;2.65;;;1.60;;
45033;SDS011;30771;47.988;-4.186;2023-05-08T10:37:36;1.75;;;1.60;;
45033;SDS011;30771;47.988;-4.186;2023-05-08T10:40:02;4.15;;;2.40;;
45033;SDS011;30771;47.988;-4.186;2023-05-08T10:42:29;2.25;;;1.70;;
45033;SDS011;30771;47.988;-4.186;2023-05-08T10:44:55;3.00;;;1.98;;
45033;SDS011;30771;47.988;-4.186;2023-05-08T10:47:23;2.22;;;1.50;;
45033;SDS011;30771;47.988;-4.186;2023-05-08T10:50:10;2.78;;;1.70;;
45033;SDS011;30771;47.988;-4.186;2023-05-08T10:53:02;4.72;;;1.95;;
45033;SDS011;30771;47.988;-4.186;2023-05-08T10:55:32;3.88;;;2.15;;
45033;SDS011;30771;47.988;-4.186;2023-05-08T10:58:27;4.55;;;2.45;;
45033;SDS011;30771;47.988;-4.186;2023-05-08T11:03:22;4.53;;;2.70;;
45033;SDS011;30771;47.988;-4.186;2023-05-08T11:05:49;5.03;;;2.60;;
45033;SDS011;30771;47.988;-4.186;2023-05-08T11:08:19;2.67;;;2.10;;
45033;SDS011;30771;47.988;-4.186;2023-05-08T11:10:48;3.53;;;2.10;;
45033;SDS011;30771;47.988;-4.186;2023-05-08T11:15:59;4.38;;;1.85;;
45033;SDS011;30771;47.988;-4.186;2023-05-08T11:18:25;3.35;;;2.40;;
45033;SDS011;30771;47.988;-4.186;2023-05-08T11:23:28;4.90;;;2.13;;
45033;SDS011;30771;47.988;-4.186;2023-05-08T11:26:01;3.53;;;2.00;;
45033;SDS011;30771;47.988;-4.186;2023-05-08T11:28:30;2.45;;;2.00;;
45033;SDS011;30771;47.988;-4.186;2023-05-08T11:31:00;3.28;;;1.95;;
45033;SDS011;30771;47.988;-4.186;2023-05-08T11:33:30;4.65;;;2.20;;
45033;SDS011;30771;47.988;-4.186;2023-05-08T11:36:10;3.70;;;2.50;;
45033;SDS011;30771;47.988;-4.186;2023-05-08T11:38:36;3.13;;;1.70;;
45033;SDS011;30771;47.988;-4.186;2023-05-08T11:41:02;5.75;;;1.92;;
45033;SDS011;30771;47.988;-4.186;2023-05-08T11:46:01;2.92;;;1.98;;
45033;SDS011;30771;47.988;-4.186;2023-05-08T11:48:31;4.72;;;2.20;;
45033;SDS011;30771;47.988;-4.186;2023-05-08T11:51:00;3.95;;;1.90;;
45033;SDS011;30771;47.988;-4.186;2023-05-08T11:53:26;3.60;;;1.95;;
45033;SDS011;30771;47.988;-4.186;2023-05-08T11:55:52;2.83;;;1.98;;
45033;SDS011;30771;47.988;-4.186;2023-05-08T11:58:18;5.30;;;2.83;;
45033;SDS011;30771;47.988;-4.186;2023-05-08T12:00:44;3.63;;;1.92;;
45033;SDS011;30771;47.988;-4.186;2023-05-08T12:03:14;3.72;;;2.60;;
45033;SDS011;30771;47.988;-4.186;2023-05-08T12:05:40;5.57;;;2.95;;
45033;SDS011;30771;47.988;-4.186;2023-05-08T12:08:06;4.43;;;3.03;;
45033;SDS011;30771;47.988;-4.186;2023-05-08T12:13:29;7.53;;;3.65;;
45033;SDS011;30771;47.988;-4.186;2023-05-08T12:15:55;8.30;;;3.90;;
45033;SDS011;30771;47.988;-4.186;2023-05-08T12:18:22;6.75;;;3.45;;
45033;SDS011;30771;47.988;-4.186;2023-05-08T12:20:53;6.15;;;3.33;;
45033;SDS011;30771;47.988;-4.186;2023-05-08T12:23:20;8.63;;;5.05;;
45033;SDS011;30771;47.988;-4.186;2023-05-08T12:25:45;9.88;;;4.72;;
45033;SDS011;30771;47.988;-4.186;2023-05-08T12:28:11;10.30;;;5.80;;
45033;SDS011;30771;47.988;-4.186;2023-05-08T12:30:36;13.45;;;5.78;;
45033;SDS011;30771;47.988;-4.186;2023-05-08T12:33:02;8.95;;;4.70;;
45033;SDS011;30771;47.988;-4.186;2023-05-08T12:35:28;13.55;;;5.95;;
45033;SDS011;30771;47.988;-4.186;2023-05-08T12:38:01;8.93;;;5.65;;
45033;SDS011;30771;47.988;-4.186;2023-05-08T12:40:29;13.90;;;6.97;;
45033;SDS011;30771;47.988;-4.186;2023-05-08T12:42:59;13.20;;;7.22;;
45033;SDS011;30771;47.988;-4.186;2023-05-08T12:45:26;12.18;;;6.55;;
45033;SDS011;30771;47.988;-4.186;2023-05-08T12:47:56;17.63;;;6.97;;
45033;SDS011;30771;47.988;-4.186;2023-05-08T12:50:23;10.80;;;7.30;;
45033;SDS011;30771;47.988;-4.186;2023-05-08T12:52:48;16.38;;;7.60;;
45033;SDS011;30771;47.988;-4.186;2023-05-08T12:55:21;17.88;;;7.47;;
45033;SDS011;30771;47.988;-4.186;2023-05-08T12:57:48;15.73;;;7.68;;
45033;SDS011;30771;47.988;-4.186;2023-05-08T13:00:14;15.32;;;7.57;;
45033;SDS011;30771;47.988;-4.186;2023-05-08T13:02:42;17.10;;;7.35;;
45033;SDS011;30771;47.988;-4.186;2023-05-08T13:05:17;17.02;;;7.15;;
45033;SDS011;30771;47.988;-4.186;2023-05-08T13:07:47;17.05;;;7.25;;
45033;SDS011;30771;47.988;-4.186;2023-05-08T13:10:13;23.20;;;9.05;;
45033;SDS011;30771;47.988;-4.186;2023-05-08T13:12:38;20.80;;;8.73;;
45033;SDS011;30771;47.988;-4.186;2023-05-08T13:15:03;23.83;;;10.30;;
45033;SDS011;30771;47.988;-4.186;2023-05-08T13:17:29;21.50;;;9.32;;
45033;SDS011;30771;47.988;-4.186;2023-05-08T13:19:54;20.48;;;9.65;;
45033;SDS011;30771;47.988;-4.186;2023-05-08T13:22:20;19.33;;;9.73;;
45033;SDS011;30771;47.988;-4.186;2023-05-08T13:24:45;22.08;;;11.23;;
45033;SDS011;30771;47.988;-4.186;2023-05-08T13:27:10;21.77;;;10.73;;
45033;SDS011;30771;47.988;-4.186;2023-05-08T13:29:35;27.63;;;11.82;;
45033;SDS011;30771;47.988;-4.186;2023-05-08T13:32:01;27.73;;;11.10;;
45033;SDS011;30771;47.988;-4.186;2023-05-08T13:34:26;23.00;;;11.48;;
45033;SDS011;30771;47.988;-4.186;2023-05-08T13:36:51;25.27;;;10.77;;
45033;SDS011;30771;47.988;-4.186;2023-05-08T13:39:17;23.00;;;11.00;;
45033;SDS011;30771;47.988;-4.186;2023-05-08T13:41:42;27.23;;;11.43;;
45033;SDS011;30771;47.988;-4.186;2023-05-08T13:44:07;32.47;;;12.23;;
45033;SDS011;30771;47.988;-4.186;2023-05-08T13:46:33;26.40;;;11.05;;
45033;SDS011;30771;47.988;-4.186;2023-05-08T13:48:58;24.58;;;10.30;;
45033;SDS011;30771;47.988;-4.186;2023-05-08T13:51:23;34.95;;;12.45;;
45033;SDS011;30771;47.988;-4.186;2023-05-08T13:53:49;31.83;;;11.32;;
45033;SDS011;30771;47.988;-4.186;2023-05-08T13:56:14;46.60;;;13.00;;
45033;SDS011;30771;47.988;-4.186;2023-05-08T13:58:39;38.67;;;13.93;;
45033;SDS011;30771;47.988;-4.186;2023-05-08T14:01:05;34.92;;;11.98;;
45033;SDS011;30771;47.988;-4.186;2023-05-08T14:03:30;33.75;;;12.75;;
45033;SDS011;30771;47.988;-4.186;2023-05-08T14:05:55;39.17;;;11.55;;
45033;SDS011;30771;47.988;-4.186;2023-05-08T14:08:20;35.90;;;11.95;;
45033;SDS011;30771;47.988;-4.186;2023-05-08T14:10:46;39.55;;;12.38;;
45033;SDS011;30771;47.988;-4.186;2023-05-08T14:13:11;32.95;;;11.15;;
45033;SDS011;30771;47.988;-4.186;2023-05-08T14:15:36;28.52;;;11.63;;
45033;SDS011;30771;47.988;-4.186;2023-05-08T14:18:02;27.10;;;10.77;;
45033;SDS011;30771;47.988;-4.186;2023-05-08T14:20:27;32.28;;;11.35;;
45033;SDS011;30771;47.988;-4.186;2023-05-08T14:22:53;28.20;;;9.88;;
45033;SDS011;30771;47.988;-4.186;2023-05-08T14:25:18;33.47;;;10.77;;
45033;SDS011;30771;47.988;-4.186;2023-05-08T14:27:43;33.35;;;11.00;;
45033;SDS011;30771;47.988;-4.186;2023-05-08T14:30:08;28.92;;;10.85;;
45033;SDS011;30771;47.988;-4.186;2023-05-08T14:32:34;26.42;;;11.13;;
45033;SDS011;30771;47.988;-4.186;2023-05-08T14:34:59;26.75;;;10.52;;
45033;SDS011;30771;47.988;-4.186;2023-05-08T14:37:25;31.92;;;11.20;;
45033;SDS011;30771;47.988;-4.186;2023-05-08T14:39:51;24.88;;;10.63;;
45033;SDS011;30771;47.988;-4.186;2023-05-08T14:42:16;21.48;;;9.15;;
45033;SDS011;30771;47.988;-4.186;2023-05-08T14:44:41;23.90;;;9.55;;
45033;SDS011;30771;47.988;-4.186;2023-05-08T14:47:07;24.50;;;9.30;;
45033;SDS011;30771;47.988;-4.186;2023-05-08T14:49:33;18.98;;;10.82;;
45033;SDS011;30771;47.988;-4.186;2023-05-08T14:51:58;18.77;;;9.55;;
45033;SDS011;30771;47.988;-4.186;2023-05-08T14:54:24;27.85;;;10.15;;
45033;SDS011;30771;47.988;-4.186;2023-05-08T14:56:49;24.27;;;10.57;;
45033;SDS011;30771;47.988;-4.186;2023-05-08T14:59:14;23.92;;;12.63;;
45033;SDS011;30771;47.988;-4.186;2023-05-08T15:01:40;21.63;;;11.00;;
45033;SDS011;30771;47.988;-4.186;2023-05-08T15:04:05;20.73;;;10.23;;
45033;SDS011;30771;47.988;-4.186;2023-05-08T15:06:30;17.58;;;10.50;;
45033;SDS011;30771;47.988;-4.186;2023-05-08T15:08:56;44.80;;;25.42;;
45033;SDS011;30771;47.988;-4.186;2023-05-08T15:11:21;31.70;;;13.85;;
45033;SDS011;30771;47.988;-4.186;2023-05-08T15:13:46;22.65;;;12.20;;
45033;SDS011;30771;47.988;-4.186;2023-05-08T15:16:11;23.52;;;9.73;;
45033;SDS011;30771;47.988;-4.186;2023-05-08T15:18:37;32.08;;;13.65;;
45033;SDS011;30771;47.988;-4.186;2023-05-08T15:21:02;31.35;;;15.15;;
45033;SDS011;30771;47.988;-4.186;2023-05-08T15:23:27;30.95;;;12.63;;
45033;SDS011;30771;47.988;-4.186;2023-05-08T15:25:53;22.25;;;10.32;;
45033;SDS011;30771;47.988;-4.186;2023-05-08T15:28:18;17.70;;;8.98;;
45033;SDS011;30771;47.988;-4.186;2023-05-08T15:30:44;27.90;;;9.48;;
45033;SDS011;30771;47.988;-4.186;2023-05-08T15:33:10;20.73;;;8.65;;
45033;SDS011;30771;47.988;-4.186;2023-05-08T15:35:35;27.55;;;8.93;;
45033;SDS011;30771;47.988;-4.186;2023-05-08T15:38:00;25.05;;;9.43;;
45033;SDS011;30771;47.988;-4.186;2023-05-08T15:40:26;25.30;;;8.40;;
45033;SDS011;30771;47.988;-4.186;2023-05-08T15:42:51;19.63;;;9.13;;
45033;SDS011;30771;47.988;-4.186;2023-05-08T15:45:16;26.35;;;8.68;;
45033;SDS011;30771;47.988;-4.186;2023-05-08T15:47:42;26.20;;;10.10;;
45033;SDS011;30771;47.988;-4.186;2023-05-08T15:50:07;27.90;;;10.50;;
45033;SDS011;30771;47.988;-4.186;2023-05-08T15:52:33;27.65;;;11.57;;
45033;SDS011;30771;47.988;-4.186;2023-05-08T15:54:58;28.20;;;12.77;;
45033;SDS011;30771;47.988;-4.186;2023-05-08T15:57:23;22.30;;;10.40;;
45033;SDS011;30771;47.988;-4.186;2023-05-08T15:59:49;24.52;;;9.45;;
45033;SDS011;30771;47.988;-4.186;2023-05-08T16:02:14;26.25;;;10.48;;
45033;SDS011;30771;47.988;-4.186;2023-05-08T16:04:39;23.23;;;9.68;;
45033;SDS011;30771;47.988;-4.186;2023-05-08T16:07:05;18.13;;;8.63;;
45033;SDS011;30771;47.988;-4.186;2023-05-08T16:09:30;22.73;;;9.75;;
45033;SDS011;30771;47.988;-4.186;2023-05-08T16:11:56;17.05;;;9.07;;
45033;SDS011;30771;47.988;-4.186;2023-05-08T16:14:21;29.33;;;9.20;;
45033;SDS011;30771;47.988;-4.186;2023-05-08T16:16:47;23.08;;;9.20;;
45033;SDS011;30771;47.988;-4.186;2023-05-08T16:19:12;20.63;;;9.52;;
45033;SDS011;30771;47.988;-4.186;2023-05-08T16:21:37;22.88;;;10.40;;
45033;SDS011;30771;47.988;-4.186;2023-05-08T16:24:03;20.20;;;9.18;;
45033;SDS011;30771;47.988;-4.186;2023-05-08T16:26:29;25.55;;;10.25;;
45033;SDS011;30771;47.988;-4.186;2023-05-08T16:28:54;26.50;;;10.52;;
45033;SDS011;30771;47.988;-4.186;2023-05-08T16:31:20;21.60;;;10.10;;
45033;SDS011;30771;47.988;-4.186;2023-05-08T16:33:45;31.60;;;10.82;;
45033;SDS011;30771;47.988;-4.186;2023-05-08T16:36:10;27.20;;;10.88;;
45033;SDS011;30771;47.988;-4.186;2023-05-08T16:38:36;32.42;;;11.15;;
45033;SDS011;30771;47.988;-4.186;2023-05-08T16:41:01;27.77;;;11.50;;
45033;SDS011;30771;47.988;-4.186;2023-05-08T16:43:27;34.25;;;12.68;;
45033;SDS011;30771;47.988;-4.186;2023-05-08T16:45:53;30.23;;;13.13;;
45033;SDS011;30771;47.988;-4.186;2023-05-08T16:48:18;33.33;;;12.95;;
45033;SDS011;30771;47.988;-4.186;2023-05-08T16:50:44;43.05;;;13.23;;
45033;SDS011;30771;47.988;-4.186;2023-05-08T16:53:09;35.40;;;13.70;;
45033;SDS011;30771;47.988;-4.186;2023-05-08T16:55:34;47.70;;;16.40;;
45033;SDS011;30771;47.988;-4.186;2023-05-08T16:58:00;52.03;;;13.93;;
45033;SDS011;30771;47.988;-4.186;2023-05-08T17:00:27;40.75;;;13.25;;
45033;SDS011;30771;47.988;-4.186;2023-05-08T17:02:53;26.55;;;10.65;;
45033;SDS011;30771;47.988;-4.186;2023-05-08T17:05:18;17.05;;;8.52;;
45033;SDS011;30771;47.988;-4.186;2023-05-08T17:07:44;27.65;;;9.02;;
45033;SDS011;30771;47.988;-4.186;2023-05-08T17:10:09;19.63;;;8.27;;
45033;SDS011;30771;47.988;-4.186;2023-05-08T17:12:34;18.73;;;7.22;;
45033;SDS011;30771;47.988;-4.186;2023-05-08T17:15:00;16.23;;;8.07;;
45033;SDS011;30771;47.988;-4.186;2023-05-08T17:17:25;20.38;;;7.40;;
45033;SDS011;30771;47.988;-4.186;2023-05-08T17:19:50;14.98;;;6.93;;
45033;SDS011;30771;47.988;-4.186;2023-05-08T17:22:16;13.30;;;5.95;;
45033;SDS011;30771;47.988;-4.186;2023-05-08T17:24:41;11.18;;;5.15;;
45033;SDS011;30771;47.988;-4.186;2023-05-08T17:27:06;8.95;;;4.00;;
45033;SDS011;30771;47.988;-4.186;2023-05-08T17:29:32;7.35;;;4.30;;
45033;SDS011;30771;47.988;-4.186;2023-05-08T17:31:58;7.95;;;4.65;;
45033;SDS011;30771;47.988;-4.186;2023-05-08T17:34:23;9.52;;;5.13;;
45033;SDS011;30771;47.988;-4.186;2023-05-08T17:36:48;5.57;;;3.53;;
45033;SDS011;30771;47.988;-4.186;2023-05-08T17:39:14;7.45;;;5.03;;
45033;SDS011;30771;47.988;-4.186;2023-05-08T17:41:39;4.95;;;2.95;;
45033;SDS011;30771;47.988;-4.186;2023-05-08T17:44:04;7.05;;;3.03;;
45033;SDS011;30771;47.988;-4.186;2023-05-08T17:46:30;6.53;;;2.25;;
45033;SDS011;30771;47.988;-4.186;2023-05-08T17:48:55;3.55;;;2.30;;
45033;SDS011;30771;47.988;-4.186;2023-05-08T17:51:20;4.13;;;2.03;;
45033;SDS011;30771;47.988;-4.186;2023-05-08T17:53:45;3.13;;;1.83;;
45033;SDS011;30771;47.988;-4.186;2023-05-08T17:56:11;3.35;;;2.17;;
45033;SDS011;30771;47.988;-4.186;2023-05-08T17:58:36;3.70;;;2.28;;
45033;SDS011;30771;47.988;-4.186;2023-05-08T18:01:01;6.15;;;1.90;;
45033;SDS011;30771;47.988;-4.186;2023-05-08T18:03:27;4.55;;;1.85;;
45033;SDS011;30771;47.988;-4.186;2023-05-08T18:05:52;3.53;;;1.80;;
45033;SDS011;30771;47.988;-4.186;2023-05-08T18:08:17;3.58;;;1.83;;
45033;SDS011;30771;47.988;-4.186;2023-05-08T18:10:43;3.85;;;1.25;;
45033;SDS011;30771;47.988;-4.186;2023-05-08T18:13:08;4.75;;;1.30;;
45033;SDS011;30771;47.988;-4.186;2023-05-08T18:15:33;5.20;;;1.50;;
45033;SDS011;30771;47.988;-4.186;2023-05-08T18:17:58;3.88;;;2.20;;
45033;SDS011;30771;47.988;-4.186;2023-05-08T18:20:24;6.03;;;4.25;;
45033;SDS011;30771;47.988;-4.186;2023-05-08T18:22:49;3.72;;;2.80;;
45033;SDS011;30771;47.988;-4.186;2023-05-08T18:25:14;2.83;;;1.80;;
45033;SDS011;30771;47.988;-4.186;2023-05-08T18:27:40;2.05;;;1.00;;
45033;SDS011;30771;47.988;-4.186;2023-05-08T18:30:05;1.50;;;1.05;;
45033;SDS011;30771;47.988;-4.186;2023-05-08T18:32:31;2.15;;;1.00;;
45033;SDS011;30771;47.988;-4.186;2023-05-08T18:34:57;2.13;;;0.73;;
45033;SDS011;30771;47.988;-4.186;2023-05-08T18:37:22;0.95;;;0.70;;
45033;SDS011;30771;47.988;-4.186;2023-05-08T18:39:47;3.53;;;0.55;;
45033;SDS011;30771;47.988;-4.186;2023-05-08T18:42:13;2.03;;;1.10;;
45033;SDS011;30771;47.988;-4.186;2023-05-08T18:44:38;3.97;;;0.57;;
45033;SDS011;30771;47.988;-4.186;2023-05-08T18:47:03;2.45;;;0.45;;
45033;SDS011;30771;47.988;-4.186;2023-05-08T18:49:29;2.60;;;1.15;;
45033;SDS011;30771;47.988;-4.186;2023-05-08T18:51:54;2.53;;;1.00;;
45033;SDS011;30771;47.988;-4.186;2023-05-08T18:54:20;1.58;;;0.68;;
45033;SDS011;30771;47.988;-4.186;2023-05-08T18:56:45;1.27;;;1.10;;
45033;SDS011;30771;47.988;-4.186;2023-05-08T18:59:10;0.85;;;0.80;;
45033;SDS011;30771;47.988;-4.186;2023-05-08T19:01:36;1.00;;;0.70;;
45033;SDS011;30771;47.988;-4.186;2023-05-08T19:04:01;2.83;;;0.80;;
45033;SDS011;30771;47.988;-4.186;2023-05-08T19:06:27;5.25;;;0.82;;
45033;SDS011;30771;47.988;-4.186;2023-05-08T19:08:52;4.13;;;0.68;;
45033;SDS011;30771;47.988;-4.186;2023-05-08T19:11:20;1.25;;;0.30;;
45033;SDS011;30771;47.988;-4.186;2023-05-08T19:13:46;1.88;;;0.68;;
45033;SDS011;30771;47.988;-4.186;2023-05-08T19:16:11;0.77;;;0.70;;
45033;SDS011;30771;47.988;-4.186;2023-05-08T19:18:36;0.55;;;0.45;;
45033;SDS011;30771;47.988;-4.186;2023-05-08T19:21:01;1.45;;;0.50;;
45033;SDS011;30771;47.988;-4.186;2023-05-08T19:23:27;2.00;;;0.40;;
45033;SDS011;30771;47.988;-4.186;2023-05-08T19:25:52;0.77;;;0.50;;
45033;SDS011;30771;47.988;-4.186;2023-05-08T19:28:17;1.15;;;0.40;;
45033;SDS011;30771;47.988;-4.186;2023-05-08T19:30:43;0.73;;;0.43;;
45033;SDS011;30771;47.988;-4.186;2023-05-08T19:33:08;0.80;;;0.60;;
45033;SDS011;30771;47.988;-4.186;2023-05-08T19:35:34;2.47;;;0.90;;
45033;SDS011;30771;47.988;-4.186;2023-05-08T19:37:59;1.25;;;0.80;;
45033;SDS011;30771;47.988;-4.186;2023-05-08T19:40:24;1.25;;;0.80;;
45033;SDS011;30771;47.988;-4.186;2023-05-08T19:42:49;2.22;;;0.65;;
45033;SDS011;30771;47.988;-4.186;2023-05-08T19:45:15;3.83;;;0.73;;
45033;SDS011;30771;47.988;-4.186;2023-05-08T19:47:40;2.08;;;0.60;;
45033;SDS011;30771;47.988;-4.186;2023-05-08T19:50:06;1.75;;;0.50;;
45033;SDS011;30771;47.988;-4.186;2023-05-08T19:52:31;2.70;;;0.50;;
45033;SDS011;30771;47.988;-4.186;2023-05-08T19:54:57;2.22;;;0.47;;
45033;SDS011;30771;47.988;-4.186;2023-05-08T19:57:22;2.13;;;0.50;;
45033;SDS011;30771;47.988;-4.186;2023-05-08T19:59:48;0.82;;;0.50;;
45033;SDS011;30771;47.988;-4.186;2023-05-08T20:02:13;0.63;;;0.40;;
45033;SDS011;30771;47.988;-4.186;2023-05-08T20:04:38;3.63;;;0.50;;
45033;SDS011;30771;47.988;-4.186;2023-05-08T20:07:04;1.92;;;0.50;;
45033;SDS011;30771;47.988;-4.186;2023-05-08T20:09:29;1.80;;;0.50;;
45033;SDS011;30771;47.988;-4.186;2023-05-08T20:11:54;1.58;;;0.68;;
45033;SDS011;30771;47.988;-4.186;2023-05-08T20:14:20;1.00;;;0.70;;
45033;SDS011;30771;47.988;-4.186;2023-05-08T20:16:45;1.17;;;0.70;;
45033;SDS011;30771;47.988;-4.186;2023-05-08T20:19:10;2.00;;;0.90;;
45033;SDS011;30771;47.988;-4.186;2023-05-08T20:21:36;1.15;;;1.00;;
45033;SDS011;30771;47.988;-4.186;2023-05-08T20:24:01;3.60;;;1.27;;
45033;SDS011;30771;47.988;-4.186;2023-05-08T20:26:26;2.70;;;1.33;;
45033;SDS011;30771;47.988;-4.186;2023-05-08T20:28:52;1.88;;;1.30;;
45033;SDS011;30771;47.988;-4.186;2023-05-08T20:31:17;2.00;;;1.30;;
45033;SDS011;30771;47.988;-4.186;2023-05-08T20:33:43;2.28;;;1.63;;
45033;SDS011;30771;47.988;-4.186;2023-05-08T20:36:08;2.40;;;1.30;;
45033;SDS011;30771;47.988;-4.186;2023-05-08T20:38:33;1.30;;;1.10;;